Terminal Aerodrome Forecast
Issued by NWS

Home | Current Version | Previous Version | Text Only | Print | Product List | Glossary On
Versions: 1 2 3 4 5 6 7 8 9 10 11 12 13 14 15
340
FTUS41 KLWX 042015 AAA
TAFMTN
TAF AMD
KMTN 042015Z 0420/0518 06006KT 4SM -DZ BR OVC006
     FM051200 04007KT 3SM -SHRA OVC008
     FM051400 03007KT 6SM -SHRA OVC015=

USA.gov is the U.S. government's official web portal to all federal, state and local government web resources and services.